Time;durP1;ratioP1;P1;durP2;ratioP2;P2;SDS_P1;SDS_P2;PMS_P1;PMS_P2;Temp;Humidity;BMP_temperature;BMP_pressure;BME280_temperature;BME280_humidity;BME280_pressure;Samples;Min_cycle;Max_cycle;Signal;HPM_P1;HPM_P2
2022/09/02 00:00:09;;;;;;;7.65;3.10;;;;;;;;;;5047989;28;20524;-73
2022/09/02 00:02:35;;;;;;;5.32;3.40;;;;;;;;;;5051898;28;20108;-73
2022/09/02 00:05:01;;;;;;;6.30;3.40;;;;;;;;;;5053849;28;20021;-73
2022/09/02 00:07:27;;;;;;;5.55;3.05;;;;;;;;;;5050498;28;20027;-71
2022/09/02 00:09:53;;;;;;;8.07;3.35;;;;;;;;;;5051919;28;20071;-72
2022/09/02 00:12:19;;;;;;;5.97;3.45;;;;;;;;;;5050525;28;20029;-72
2022/09/02 00:14:46;;;;;;;3.10;2.60;;;;;;;;;;5053329;28;20029;-71
2022/09/02 00:17:12;;;;;;;3.65;3.08;;;;;;;;;;5045190;28;20107;-70
2022/09/02 00:19:38;;;;;;;5.25;3.65;;;;;;;;;;5052613;28;20048;-73
2022/09/02 00:22:04;;;;;;;4.85;2.78;;;;;;;;;;5050751;28;20021;-72
2022/09/02 00:24:31;;;;;;;4.13;3.28;;;;;;;;;;5052710;28;20066;-71
2022/09/02 00:26:57;;;;;;;5.85;3.67;;;;;;;;;;5047365;28;20037;-69
2022/09/02 00:29:23;;;;;;;7.07;3.28;;;;;;;;;;5044765;28;20017;-72
2022/09/02 00:31:49;;;;;;;3.92;3.35;;;;;;;;;;5052963;28;20096;-73
2022/09/02 00:34:16;;;;;;;6.75;3.40;;;;;;;;;;5052703;28;20045;-74
2022/09/02 00:36:42;;;;;;;6.40;3.65;;;;;;;;;;5049261;28;20033;-71
2022/09/02 00:39:08;;;;;;;6.50;3.80;;;;;;;;;;5047716;28;20471;-71
2022/09/02 00:41:35;;;;;;;5.53;3.30;;;;;;;;;;5049928;28;20100;-72
2022/09/02 00:44:03;;;;;;;3.95;3.20;;;;;;;;;;5050466;28;20116;-72
2022/09/02 00:46:30;;;;;;;7.57;3.85;;;;;;;;;;5049548;28;20044;-73
2022/09/02 00:49:00;;;;;;;5.78;3.42;;;;;;;;;;5046312;28;20040;-70
2022/09/02 00:51:27;;;;;;;7.10;3.33;;;;;;;;;;5049837;28;20440;-72
2022/09/02 00:53:54;;;;;;;4.13;3.08;;;;;;;;;;5052646;28;20029;-69
2022/09/02 00:56:22;;;;;;;4.38;3.30;;;;;;;;;;5050368;28;20017;-73
2022/09/02 00:58:49;;;;;;;9.95;3.65;;;;;;;;;;5040482;28;20028;-72
2022/09/02 01:01:15;;;;;;;6.45;3.92;;;;;;;;;;5051399;28;20021;-73
2022/09/02 01:03:42;;;;;;;7.00;3.80;;;;;;;;;;5051092;28;20025;-72
2022/09/02 01:06:14;;;;;;;4.28;3.65;;;;;;;;;;5050759;28;20485;-72
2022/09/02 01:08:42;;;;;;;4.95;3.58;;;;;;;;;;5050476;28;20115;-73
2022/09/02 01:11:09;;;;;;;8.45;3.20;;;;;;;;;;5049139;28;20048;-74
2022/09/02 01:13:39;;;;;;;8.73;3.67;;;;;;;;;;5052141;28;20029;-71
2022/09/02 01:16:11;;;;;;;5.13;3.72;;;;;;;;;;5051915;28;20021;-73
2022/09/02 01:18:37;;;;;;;4.78;2.90;;;;;;;;;;5043458;28;20071;-70
2022/09/02 01:21:03;;;;;;;4.53;3.30;;;;;;;;;;5049023;28;20044;-72
2022/09/02 01:23:31;;;;;;;3.85;3.25;;;;;;;;;;5052050;28;20479;-73
2022/09/02 01:25:57;;;;;;;6.15;3.60;;;;;;;;;;5052432;28;20111;-71
2022/09/02 01:28:24;;;;;;;6.78;3.40;;;;;;;;;;5042905;28;20098;-73
2022/09/02 01:30:51;;;;;;;3.95;3.22;;;;;;;;;;5047383;28;20047;-74
2022/09/02 01:33:18;;;;;;;7.25;3.45;;;;;;;;;;5051652;28;20083;-73
2022/09/02 01:35:45;;;;;;;3.97;3.40;;;;;;;;;;5050688;28;20057;-73
2022/09/02 01:38:11;;;;;;;3.78;3.33;;;;;;;;;;5043088;28;20028;-72
2022/09/02 01:40:37;;;;;;;5.00;3.22;;;;;;;;;;5048370;28;20021;-70
2022/09/02 01:43:08;;;;;;;3.92;3.47;;;;;;;;;;5051372;28;20532;-72
2022/09/02 01:45:38;;;;;;;3.85;2.95;;;;;;;;;;5051938;28;20059;-70
2022/09/02 01:48:05;;;;;;;6.97;3.60;;;;;;;;;;5046154;28;20050;-72
2022/09/02 01:50:32;;;;;;;6.13;3.13;;;;;;;;;;5049784;28;20056;-72
2022/09/02 01:53:00;;;;;;;4.10;3.22;;;;;;;;;;5051212;28;20498;-71
2022/09/02 01:55:26;;;;;;;5.95;3.58;;;;;;;;;;5051508;28;20036;-72
2022/09/02 01:57:52;;;;;;;7.47;3.75;;;;;;;;;;5042625;28;20028;-73
2022/09/02 02:00:19;;;;;;;5.05;3.08;;;;;;;;;;5045757;28;20025;-73
2022/09/02 02:02:45;;;;;;;5.47;2.88;;;;;;;;;;5051356;28;20446;-72
2022/09/02 02:05:12;;;;;;;4.40;3.10;;;;;;;;;;5051495;28;20028;-73
2022/09/02 02:07:41;;;;;;;9.75;3.55;;;;;;;;;;5048418;28;20025;-72
2022/09/02 02:10:09;;;;;;;7.30;3.38;;;;;;;;;;5051224;28;20025;-73
2022/09/02 02:12:35;;;;;;;4.28;3.65;;;;;;;;;;5048540;28;20466;-71
2022/09/02 02:15:02;;;;;;;5.07;3.20;;;;;;;;;;5050968;28;20075;-72
2022/09/02 02:17:28;;;;;;;4.20;3.13;;;;;;;;;;5042468;28;20032;-72
2022/09/02 02:19:54;;;;;;;7.07;4.25;;;;;;;;;;5051120;28;20021;-69
2022/09/02 02:22:20;;;;;;;7.00;3.78;;;;;;;;;;5047954;28;20518;-72
2022/09/02 02:24:46;;;;;;;5.93;3.42;;;;;;;;;;5050984;28;20017;-72
2022/09/02 02:27:12;;;;;;;5.22;3.67;;;;;;;;;;5042769;28;20221;-73
2022/09/02 02:29:39;;;;;;;4.25;3.70;;;;;;;;;;5042978;28;20513;-71
2022/09/02 02:32:06;;;;;;;7.78;3.42;;;;;;;;;;5051007;28;20053;-72
2022/09/02 02:34:32;;;;;;;4.45;3.50;;;;;;;;;;5047976;28;20581;-71
2022/09/02 02:36:59;;;;;;;7.07;3.63;;;;;;;;;;5042978;28;20111;-70
2022/09/02 02:39:25;;;;;;;5.85;3.95;;;;;;;;;;5045632;28;20479;-72
2022/09/02 02:41:51;;;;;;;5.60;4.07;;;;;;;;;;5051010;28;20031;-71
2022/09/02 02:44:17;;;;;;;6.00;3.90;;;;;;;;;;5050121;28;20029;-73
2022/09/02 02:46:43;;;;;;;5.47;3.70;;;;;;;;;;5047334;28;20487;-72
2022/09/02 02:49:09;;;;;;;5.50;3.63;;;;;;;;;;5045782;28;20025;-72
2022/09/02 02:51:35;;;;;;;7.82;3.95;;;;;;;;;;5047924;28;20021;-71
2022/09/02 02:54:02;;;;;;;5.28;4.07;;;;;;;;;;5050420;28;20037;-71
2022/09/02 02:56:29;;;;;;;81.00;44.78;;;;;;;;;;5047257;28;20035;-69
2022/09/02 02:58:55;;;;;;;88.32;45.95;;;;;;;;;;5037261;28;20255;-73
2022/09/02 03:01:21;;;;;;;743.75;428.08;;;;;;;;;;5050818;28;20049;-72
2022/09/02 03:03:47;;;;;;;328.88;143.30;;;;;;;;;;5050659;28;20136;-73
2022/09/02 03:06:14;;;;;;;157.98;67.70;;;;;;;;;;5048116;28;20017;-73
2022/09/02 03:08:40;;;;;;;423.48;195.65;;;;;;;;;;5053566;28;20455;-71
2022/09/02 03:11:07;;;;;;;384.40;158.35;;;;;;;;;;5051480;28;20082;-71
2022/09/02 03:13:34;;;;;;;331.98;125.00;;;;;;;;;;5054735;28;20021;-72
2022/09/02 03:16:00;;;;;;;212.25;79.05;;;;;;;;;;5053077;28;20025;-71
2022/09/02 03:18:26;;;;;;;235.75;83.07;;;;;;;;;;5046043;28;20442;-71
2022/09/02 03:20:52;;;;;;;150.95;53.17;;;;;;;;;;5051535;28;20021;-72
2022/09/02 03:23:19;;;;;;;137.43;45.40;;;;;;;;;;5054729;28;20043;-73
2022/09/02 03:25:45;;;;;;;142.15;43.53;;;;;;;;;;5054927;28;20017;-72
2022/09/02 03:28:12;;;;;;;11.02;5.32;;;;;;;;;;5046604;28;20028;-72
2022/09/02 03:30:38;;;;;;;46.60;15.88;;;;;;;;;;5063396;22;20045;-71
2022/09/02 03:33:04;;;;;;;13.10;6.63;;;;;;;;;;5053540;28;20029;-72
2022/09/02 03:35:31;;;;;;;102.43;51.55;;;;;;;;;;5053817;28;20013;-71
2022/09/02 03:37:58;;;;;;;45.25;21.58;;;;;;;;;;5053382;28;20037;-71
2022/09/02 03:40:25;;;;;;;58.92;25.80;;;;;;;;;;5053830;28;20029;-72
2022/09/02 03:42:52;;;;;;;12.43;6.38;;;;;;;;;;5053875;28;20467;-71
2022/09/02 03:45:18;;;;;;;27.48;11.60;;;;;;;;;;5054213;28;20032;-71
2022/09/02 03:47:50;;;;;;;20.10;9.38;;;;;;;;;;5052388;28;20056;-71
2022/09/02 03:50:17;;;;;;;11.65;6.57;;;;;;;;;;5053835;28;20461;-71
2022/09/02 03:52:43;;;;;;;8.82;5.20;;;;;;;;;;5052508;28;20059;-71
2022/09/02 03:55:09;;;;;;;6.72;5.15;;;;;;;;;;5053752;28;20029;-70
2022/09/02 03:57:35;;;;;;;5.97;4.28;;;;;;;;;;5053282;28;20021;-71
2022/09/02 04:00:04;;;;;;;6.22;4.30;;;;;;;;;;5053917;28;20017;-70
2022/09/02 04:02:30;;;;;;;5.88;4.10;;;;;;;;;;5053642;28;20053;-71
2022/09/02 04:04:56;;;;;;;9.23;4.50;;;;;;;;;;5052126;28;20053;-71
2022/09/02 04:07:22;;;;;;;4.75;3.95;;;;;;;;;;5045514;28;20108;-71
2022/09/02 04:09:48;;;;;;;8.85;4.50;;;;;;;;;;5049307;28;20031;-71
2022/09/02 04:12:14;;;;;;;5.68;4.25;;;;;;;;;;5053562;28;20021;-72
2022/09/02 04:14:41;;;;;;;4.70;3.85;;;;;;;;;;5053208;28;20380;-71
2022/09/02 04:17:07;;;;;;;6.88;4.57;;;;;;;;;;5053434;28;20025;-72
2022/09/02 04:19:33;;;;;;;6.15;3.90;;;;;;;;;;5052263;28;20091;-72
2022/09/02 04:21:59;;;;;;;5.53;4.25;;;;;;;;;;5051935;28;20155;-72
2022/09/02 04:24:25;;;;;;;6.63;3.95;;;;;;;;;;5053489;28;20021;-71
2022/09/02 04:26:51;;;;;;;7.45;4.53;;;;;;;;;;5053310;28;20029;-72
2022/09/02 04:29:18;;;;;;;5.63;4.00;;;;;;;;;;5052968;28;20032;-73
2022/09/02 04:31:44;;;;;;;5.10;3.63;;;;;;;;;;5052936;28;20490;-72
2022/09/02 04:34:09;;;;;;;4.93;3.83;;;;;;;;;;5052999;28;20104;-72
2022/09/02 04:36:35;;;;;;;5.38;3.75;;;;;;;;;;5053315;28;20033;-72
2022/09/02 04:39:01;;;;;;;6.22;4.38;;;;;;;;;;5052711;28;20020;-73
2022/09/02 04:41:29;;;;;;;4.72;4.00;;;;;;;;;;5052937;28;20021;-73
2022/09/02 04:43:56;;;;;;;4.03;3.53;;;;;;;;;;5051840;28;20052;-72
2022/09/02 04:46:22;;;;;;;7.95;4.03;;;;;;;;;;5051571;28;20074;-73
2022/09/02 04:48:48;;;;;;;4.05;3.65;;;;;;;;;;5052783;28;20024;-73
2022/09/02 04:51:16;;;;;;;5.82;3.53;;;;;;;;;;5051044;28;20479;-73
2022/09/02 04:53:42;;;;;;;4.15;3.08;;;;;;;;;;5052340;28;20025;-72
2022/09/02 04:56:10;;;;;;;4.25;2.80;;;;;;;;;;5052281;28;20021;-73
2022/09/02 04:58:36;;;;;;;2.67;2.10;;;;;;;;;;5052389;28;20498;-73
2022/09/02 05:01:06;;;;;;;5.00;2.30;;;;;;;;;;5052439;28;20021;-72
2022/09/02 05:03:31;;;;;;;5.07;2.50;;;;;;;;;;5052535;28;20507;-74
2022/09/02 05:06:01;;;;;;;3.00;2.00;;;;;;;;;;5052235;28;20070;-73
2022/09/02 05:08:27;;;;;;;4.85;2.00;;;;;;;;;;5052051;28;20086;-72
2022/09/02 05:10:54;;;;;;;3.55;1.88;;;;;;;;;;5052152;28;20017;-74
2022/09/02 05:13:20;;;;;;;4.03;1.95;;;;;;;;;;5051061;28;20435;-73
2022/09/02 05:15:49;;;;;;;2.78;1.85;;;;;;;;;;5050488;28;20032;-72
2022/09/02 05:18:15;;;;;;;4.22;1.77;;;;;;;;;;5051742;28;20048;-72
2022/09/02 05:20:44;;;;;;;7.55;2.38;;;;;;;;;;5044738;28;20017;-73
2022/09/02 05:23:11;;;;;;;3.22;1.80;;;;;;;;;;5051829;28;20096;-72
2022/09/02 05:25:38;;;;;;;5.03;1.80;;;;;;;;;;5051786;28;20032;-73
2022/09/02 05:28:07;;;;;;;4.63;1.80;;;;;;;;;;5051874;28;20407;-73
2022/09/02 05:30:33;;;;;;;3.92;2.13;;;;;;;;;;5051253;28;20120;-73
2022/09/02 05:32:59;;;;;;;3.63;2.03;;;;;;;;;;5051351;28;20029;-72
2022/09/02 05:35:25;;;;;;;9.30;2.33;;;;;;;;;;5051607;28;20035;-72
2022/09/02 05:37:51;;;;;;;3.90;2.30;;;;;;;;;;5050786;28;20025;-72
2022/09/02 05:40:17;;;;;;;3.35;1.67;;;;;;;;;;5051323;28;20379;-73
2022/09/02 05:42:44;;;;;;;3.30;1.73;;;;;;;;;;5051533;28;20017;-72
2022/09/02 05:45:10;;;;;;;2.80;1.55;;;;;;;;;;5051733;28;20028;-73
2022/09/02 05:47:36;;;;;;;3.22;1.50;;;;;;;;;;5049311;28;20029;-73
2022/09/02 05:50:03;;;;;;;5.50;2.05;;;;;;;;;;5051630;28;20049;-73
2022/09/02 05:52:30;;;;;;;4.72;1.58;;;;;;;;;;5051397;28;20036;-73
2022/09/02 05:54:56;;;;;;;2.10;1.50;;;;;;;;;;5051564;28;20017;-73
2022/09/02 05:57:22;;;;;;;2.67;2.03;;;;;;;;;;5050909;28;20159;-73
2022/09/02 05:59:54;;;;;;;4.88;2.47;;;;;;;;;;5051095;28;20499;-73
2022/09/02 06:02:20;;;;;;;5.13;2.00;;;;;;;;;;5051067;28;20478;-73
2022/09/02 06:04:48;;;;;;;5.22;2.17;;;;;;;;;;5051379;28;20024;-73
2022/09/02 06:07:14;;;;;;;5.60;2.08;;;;;;;;;;5049921;28;20029;-72
2022/09/02 06:09:43;;;;;;;4.90;1.75;;;;;;;;;;5050915;28;20025;-73
2022/09/02 06:12:10;;;;;;;4.13;1.55;;;;;;;;;;5051253;28;20376;-73
2022/09/02 06:14:36;;;;;;;2.80;1.35;;;;;;;;;;5048538;28;20406;-72
2022/09/02 06:17:03;;;;;;;4.65;1.58;;;;;;;;;;5048549;28;20025;-73
2022/09/02 06:19:31;;;;;;;3.15;1.67;;;;;;;;;;5050881;28;20394;-71
2022/09/02 06:21:57;;;;;;;5.93;1.77;;;;;;;;;;5048237;28;20573;-73
2022/09/02 06:24:23;;;;;;;2.88;1.58;;;;;;;;;;5049034;28;20399;-73
2022/09/02 06:26:50;;;;;;;5.30;1.30;;;;;;;;;;5048558;28;20394;-73
2022/09/02 06:29:16;;;;;;;4.72;1.70;;;;;;;;;;5047682;28;20743;-73
2022/09/02 06:31:43;;;;;;;5.05;1.60;;;;;;;;;;5047005;28;20036;-73
2022/09/02 06:34:12;;;;;;;9.70;2.28;;;;;;;;;;5048335;28;20103;-73
2022/09/02 06:36:38;;;;;;;5.57;1.98;;;;;;;;;;5049217;28;20074;-73
2022/09/02 06:39:04;;;;;;;4.45;2.00;;;;;;;;;;5046072;28;20047;-73
2022/09/02 06:41:32;;;;;;;4.20;2.17;;;;;;;;;;5049996;28;20522;-73
2022/09/02 06:44:00;;;;;;;5.70;1.95;;;;;;;;;;5048909;28;20021;-73
2022/09/02 06:46:28;;;;;;;6.47;2.17;;;;;;;;;;5047923;28;20025;-72
2022/09/02 06:48:54;;;;;;;8.30;2.15;;;;;;;;;;5049328;28;20028;-72
2022/09/02 06:51:22;;;;;;;5.80;1.80;;;;;;;;;;5049160;28;20124;-72
2022/09/02 06:53:48;;;;;;;4.32;1.75;;;;;;;;;;5049257;28;20095;-72
2022/09/02 06:56:14;;;;;;;1.83;1.20;;;;;;;;;;5048967;28;20028;-72
2022/09/02 06:58:40;;;;;;;3.38;1.77;;;;;;;;;;5050375;28;20104;-72
2022/09/02 07:01:06;;;;;;;8.40;2.25;;;;;;;;;;5051118;28;20559;-72
2022/09/02 07:06:17;;;;;;;4.38;1.50;;;;;;;;;;5050928;28;20117;-72
2022/09/02 07:08:43;;;;;;;3.47;1.58;;;;;;;;;;5050577;28;20103;-72
2022/09/02 07:11:20;;;;;;;4.57;1.92;;;;;;;;;;5050847;28;20021;-72
2022/09/02 07:13:46;;;;;;;2.75;1.48;;;;;;;;;;5050850;28;20557;-72
2022/09/02 07:16:13;;;;;;;4.80;1.88;;;;;;;;;;5050498;28;20383;-73
2022/09/02 07:18:39;;;;;;;5.55;1.85;;;;;;;;;;5049074;28;20033;-73
2022/09/02 07:21:05;;;;;;;4.07;1.20;;;;;;;;;;5050484;28;20036;-73
2022/09/02 07:23:31;;;;;;;2.53;1.30;;;;;;;;;;5050842;28;20029;-73
2022/09/02 07:25:57;;;;;;;5.47;1.67;;;;;;;;;;5050434;28;20036;-75
2022/09/02 07:28:23;;;;;;;3.67;1.42;;;;;;;;;;5050717;28;20379;-73
2022/09/02 07:30:53;;;;;;;3.00;1.33;;;;;;;;;;5050361;28;20040;-73
2022/09/02 07:33:19;;;;;;;4.60;1.88;;;;;;;;;;5050603;28;20024;-74
2022/09/02 07:35:45;;;;;;;4.82;1.52;;;;;;;;;;5050302;28;20025;-72
2022/09/02 07:38:11;;;;;;;3.75;1.73;;;;;;;;;;5050385;28;20025;-73
2022/09/02 07:40:39;;;;;;;7.18;1.48;;;;;;;;;;5050471;28;20078;-74
2022/09/02 07:43:06;;;;;;;4.97;1.30;;;;;;;;;;5050731;28;20093;-74
2022/09/02 07:45:33;;;;;;;2.75;1.10;;;;;;;;;;5050609;28;20021;-73
2022/09/02 07:47:59;;;;;;;3.60;1.23;;;;;;;;;;5049928;28;20059;-72
2022/09/02 07:50:26;;;;;;;3.28;1.15;;;;;;;;;;5050331;28;20025;-72
2022/09/02 07:52:53;;;;;;;3.78;1.08;;;;;;;;;;5050813;28;20033;-73
2022/09/02 07:55:20;;;;;;;2.03;1.40;;;;;;;;;;5054055;28;20025;-73
2022/09/02 07:57:46;;;;;;;6.80;1.33;;;;;;;;;;5053561;28;20537;-72
2022/09/02 08:00:13;;;;;;;2.72;1.20;;;;;;;;;;5053800;28;20087;-73
2022/09/02 08:02:39;;;;;;;1.80;0.95;;;;;;;;;;5060028;28;20037;-73
2022/09/02 08:05:05;;;;;;;4.25;1.20;;;;;;;;;;5053746;28;20491;-73
2022/09/02 08:07:31;;;;;;;2.30;0.90;;;;;;;;;;5049739;28;20025;-73
2022/09/02 08:09:59;;;;;;;4.78;1.35;;;;;;;;;;5052437;28;20082;-73
2022/09/02 08:12:25;;;;;;;6.00;1.00;;;;;;;;;;5052003;28;20108;-73
2022/09/02 08:14:51;;;;;;;2.50;1.00;;;;;;;;;;5053751;28;20117;-73
2022/09/02 08:17:18;;;;;;;2.50;0.73;;;;;;;;;;5057769;28;20040;-73
2022/09/02 08:19:44;;;;;;;6.97;1.20;;;;;;;;;;5047914;28;20191;-72
2022/09/02 08:22:10;;;;;;;2.40;1.20;;;;;;;;;;5050542;28;20024;-73
2022/09/02 08:24:36;;;;;;;3.67;0.90;;;;;;;;;;5051338;28;20024;-72
2022/09/02 08:27:02;;;;;;;1.58;0.90;;;;;;;;;;5051407;28;20029;-72
2022/09/02 08:29:28;;;;;;;2.58;0.90;;;;;;;;;;5051164;28;20120;-72
2022/09/02 08:31:54;;;;;;;3.03;0.70;;;;;;;;;;5051207;28;20052;-73
2022/09/02 08:34:20;;;;;;;3.92;1.05;;;;;;;;;;5051009;28;20270;-72
2022/09/02 08:36:46;;;;;;;1.15;0.68;;;;;;;;;;5051200;28;20467;-74
2022/09/02 08:39:12;;;;;;;2.10;1.08;;;;;;;;;;5054788;28;20023;-72
2022/09/02 08:41:38;;;;;;;2.88;0.70;;;;;;;;;;5053067;28;20096;-72
2022/09/02 08:44:06;;;;;;;1.45;0.75;;;;;;;;;;5059265;28;20478;-73
2022/09/02 08:46:34;;;;;;;1.30;0.63;;;;;;;;;;5056904;28;20024;-73
2022/09/02 08:49:09;;;;;;;1.90;0.68;;;;;;;;;;5053357;28;20108;-71
2022/09/02 08:51:47;;;;;;;2.28;0.70;;;;;;;;;;5053384;28;20043;-72
2022/09/02 08:54:19;;;;;;;3.00;0.73;;;;;;;;;;5051860;28;20028;-71
2022/09/02 08:56:45;;;;;;;2.53;0.82;;;;;;;;;;5049448;28;20063;-72
2022/09/02 08:59:13;;;;;;;1.20;0.60;;;;;;;;;;5049419;28;20025;-72
2022/09/02 09:01:43;;;;;;;1.55;0.73;;;;;;;;;;5050201;28;20013;-73
2022/09/02 09:04:12;;;;;;;2.28;0.60;;;;;;;;;;5050797;28;20364;-73
2022/09/02 09:06:47;;;;;;;1.50;0.60;;;;;;;;;;5049467;28;20024;-72
2022/09/02 09:09:25;;;;;;;1.77;0.52;;;;;;;;;;5052573;28;20094;-73
2022/09/02 09:12:03;;;;;;;0.90;0.60;;;;;;;;;;5051074;28;20028;-72
2022/09/02 09:14:29;;;;;;;1.65;0.95;;;;;;;;;;5051222;28;20096;-72
2022/09/02 09:16:59;;;;;;;0.73;0.40;;;;;;;;;;5044994;28;20117;-74
2022/09/02 09:19:40;;;;;;;2.95;0.32;;;;;;;;;;5049314;28;20021;-73
2022/09/02 09:22:06;;;;;;;;;;;;;;;;;;5050952;28;20052;-73
2022/09/02 09:24:40;;;;;;;2.35;0.43;;;;;;;;;;5050692;28;20398;-73
2022/09/02 09:27:10;;;;;;;3.25;0.60;;;;;;;;;;5050447;28;20059;-71
2022/09/02 09:29:36;;;;;;;3.50;0.40;;;;;;;;;;5048937;28;20441;-73
2022/09/02 09:32:03;;;;;;;0.65;0.38;;;;;;;;;;5071206;22;20110;-70
2022/09/02 09:34:49;;;;;;;4.97;0.47;;;;;;;;;;5049234;28;20104;-70
2022/09/02 09:37:32;;;;;;;1.73;0.45;;;;;;;;;;5049814;28;20021;-71
2022/09/02 09:39:58;;;;;;;5.75;0.88;;;;;;;;;;5036829;28;20078;-71
2022/09/02 09:42:36;;;;;;;2.20;0.95;;;;;;;;;;5048262;28;20522;-70
2022/09/02 09:45:21;;;;;;;1.20;0.68;;;;;;;;;;5046796;28;20745;-71
2022/09/02 09:48:03;;;;;;;1.42;0.55;;;;;;;;;;5045246;28;20332;-72
2022/09/02 09:50:29;;;;;;;0.68;0.50;;;;;;;;;;5050888;28;20025;-72
2022/09/02 09:53:13;;;;;;;0.65;0.30;;;;;;;;;;5049547;28;20103;-70
2022/09/02 09:55:49;;;;;;;0.68;0.38;;;;;;;;;;5047422;28;20512;-72
2022/09/02 09:58:15;;;;;;;2.35;0.60;;;;;;;;;;5051419;28;20028;-72
2022/09/02 10:00:41;;;;;;;2.30;0.28;;;;;;;;;;5049506;28;20024;-71
2022/09/02 10:03:07;;;;;;;1.98;0.40;;;;;;;;;;5047386;28;20390;-70
2022/09/02 10:05:38;;;;;;;0.75;0.30;;;;;;;;;;5051293;28;20100;-71
2022/09/02 10:08:05;;;;;;;0.93;0.40;;;;;;;;;;5050444;28;20437;-71
2022/09/02 10:10:32;;;;;;;1.48;0.40;;;;;;;;;;5044172;28;20033;-70
2022/09/02 10:13:00;;;;;;;1.17;0.70;;;;;;;;;;5051031;28;20029;-72
2022/09/02 10:15:33;;;;;;;1.45;0.55;;;;;;;;;;5051433;28;20413;-71
2022/09/02 10:18:00;;;;;;;0.98;0.60;;;;;;;;;;5049909;28;20486;-72
2022/09/02 10:20:49;;;;;;;1.08;0.50;;;;;;;;;;5051146;28;20029;-71
2022/09/02 10:23:15;;;;;;;2.03;0.52;;;;;;;;;;5039645;28;20471;-73
2022/09/02 10:25:51;;;;;;;4.93;0.70;;;;;;;;;;5051129;28;20028;-73
2022/09/02 10:28:20;;;;;;;0.70;0.52;;;;;;;;;;5050978;28;20428;-70
2022/09/02 10:31:02;;;;;;;3.95;0.93;;;;;;;;;;5050572;28;20094;-70
2022/09/02 10:33:27;;;;;;;;;;;;;;;;;;5050720;28;20025;-72
2022/09/02 10:35:53;;;;;;;0.30;0.30;;;;;;;;;;5050118;28;19905;-72
2022/09/02 10:38:23;;;;;;;0.77;0.40;;;;;;;;;;5049799;28;20025;-72
2022/09/02 10:41:19;;;;;;;4.07;0.60;;;;;;;;;;5049974;28;20029;-72
2022/09/02 10:43:44;;;;;;;1.98;0.40;;;;;;;;;;5032434;28;20112;-71
2022/09/02 10:46:16;;;;;;;1.55;0.68;;;;;;;;;;5050205;28;20546;-71
2022/09/02 10:48:45;;;;;;;1.25;0.47;;;;;;;;;;5044493;28;20055;-72
2022/09/02 10:51:20;;;;;;;1.80;0.38;;;;;;;;;;5049759;28;20119;-69
2022/09/02 10:53:52;;;;;;;5.00;0.60;;;;;;;;;;5049889;28;20025;-70
2022/09/02 10:56:25;;;;;;;1.70;0.65;;;;;;;;;;5049843;28;20407;-71
2022/09/02 10:59:01;;;;;;;2.05;0.40;;;;;;;;;;5049804;28;20505;-72
2022/09/02 11:01:31;;;;;;;0.47;0.40;;;;;;;;;;5037148;28;20024;-71
2022/09/02 11:04:13;;;;;;;1.00;0.30;;;;;;;;;;5049540;28;20412;-71
2022/09/02 11:06:40;;;;;;;6.47;1.00;;;;;;;;;;5049917;28;20017;-71
2022/09/02 11:09:25;;;;;;;3.00;0.60;;;;;;;;;;5045394;28;20028;-71
2022/09/02 11:11:59;;;;;;;1.05;0.65;;;;;;;;;;5040090;28;20021;-71
2022/09/02 11:14:48;;;;;;;2.33;0.50;;;;;;;;;;5049810;28;20539;-70
2022/09/02 11:17:20;;;;;;;2.97;0.60;;;;;;;;;;5041938;28;20067;-70
2022/09/02 11:19:51;;;;;;;2.20;0.88;;;;;;;;;;5037143;28;20388;-71
2022/09/02 11:22:37;;;;;;;0.77;0.40;;;;;;;;;;5050092;28;20108;-71
2022/09/02 11:25:25;;;;;;;1.45;0.43;;;;;;;;;;5049787;28;20441;-71
2022/09/02 11:27:51;;;;;;;2.33;0.60;;;;;;;;;;5050238;28;20021;-70
2022/09/02 11:30:22;;;;;;;2.22;0.80;;;;;;;;;;5015356;28;1081356;-70
2022/09/02 11:33:06;;;;;;;1.05;0.57;;;;;;;;;;5054813;28;20427;-72
2022/09/02 11:35:36;;;;;;;2.08;0.60;;;;;;;;;;5054717;28;20029;-71
2022/09/02 11:38:04;;;;;;;2.47;0.98;;;;;;;;;;5054632;28;20482;-70
2022/09/02 11:40:38;;;;;;;2.15;0.50;;;;;;;;;;5054280;28;20025;-70
2022/09/02 11:43:14;;;;;;;2.05;0.93;;;;;;;;;;5049068;28;20159;-70
2022/09/02 11:45:54;;;;;;;0.43;0.38;;;;;;;;;;5054184;28;20104;-71
2022/09/02 11:48:21;;;;;;;0.70;0.57;;;;;;;;;;5054515;28;20024;-71
2022/09/02 11:51:16;;;;;;;2.40;0.47;;;;;;;;;;5054206;28;20025;-71
2022/09/02 11:53:43;;;;;;;0.45;0.35;;;;;;;;;;5054660;28;20066;-71
2022/09/02 11:56:16;;;;;;;0.65;0.47;;;;;;;;;;5053620;28;20025;-70
2022/09/02 11:58:46;;;;;;;2.25;0.85;;;;;;;;;;5053886;28;20128;-69
2022/09/02 12:01:15;;;;;;;2.47;0.45;;;;;;;;;;5053390;28;20071;-71
2022/09/02 12:03:50;;;;;;;1.92;0.77;;;;;;;;;;5053869;28;20024;-71
2022/09/02 12:06:18;;;;;;;1.50;0.47;;;;;;;;;;5053577;28;20045;-72
2022/09/02 12:08:44;;;;;;;0.95;0.50;;;;;;;;;;5053508;28;20028;-70
2022/09/02 12:11:30;;;;;;;1.10;0.63;;;;;;;;;;5053261;28;20270;-71
2022/09/02 12:13:57;;;;;;;1.60;0.40;;;;;;;;;;5053517;28;20033;-71
2022/09/02 12:16:23;;;;;;;1.25;0.63;;;;;;;;;;5053632;28;20021;-71
2022/09/02 12:18:53;;;;;;;5.07;0.68;;;;;;;;;;5053252;28;20123;-70
2022/09/02 12:21:19;;;;;;;3.58;0.70;;;;;;;;;;5051510;28;20024;-71
2022/09/02 12:23:48;;;;;;;0.57;0.40;;;;;;;;;;5050954;28;20021;-71
2022/09/02 12:26:18;;;;;;;1.17;0.55;;;;;;;;;;5051230;28;20035;-70
2022/09/02 12:28:45;;;;;;;0.85;0.50;;;;;;;;;;5051591;28;20522;-70
2022/09/02 12:31:30;;;;;;;0.63;0.40;;;;;;;;;;5050689;28;20025;-70
2022/09/02 12:34:00;;;;;;;1.30;0.55;;;;;;;;;;5051148;28;20021;-70
2022/09/02 12:36:35;;;;;;;0.97;0.60;;;;;;;;;;5050833;28;20013;-71
2022/09/02 12:39:20;;;;;;;1.33;0.55;;;;;;;;;;5051013;28;20287;-73
2022/09/02 12:41:49;;;;;;;0.75;0.50;;;;;;;;;;5052810;28;20096;-69
2022/09/02 12:44:23;;;;;;;5.40;0.70;;;;;;;;;;5053015;28;20066;-71
2022/09/02 12:46:55;;;;;;;1.30;0.40;;;;;;;;;;5052921;28;20080;-70
2022/09/02 12:49:21;;;;;;;0.85;0.57;;;;;;;;;;5052350;28;20092;-71
2022/09/02 12:52:01;;;;;;;1.27;0.55;;;;;;;;;;5051274;28;20035;-71
2022/09/02 12:54:39;;;;;;;1.85;0.52;;;;;;;;;;5049290;28;20490;-69
2022/09/02 12:57:06;;;;;;;1.05;0.40;;;;;;;;;;5045470;28;20036;-70
2022/09/02 12:59:33;;;;;;;0.50;0.40;;;;;;;;;;5044328;28;20021;-71
2022/09/02 13:02:14;;;;;;;3.60;0.63;;;;;;;;;;5052217;28;20036;-71
2022/09/02 13:04:58;;;;;;;0.57;0.43;;;;;;;;;;5052281;28;20100;-70
2022/09/02 13:07:27;;;;;;;3.28;0.80;;;;;;;;;;5045585;28;20171;-71
2022/09/02 13:09:56;;;;;;;1.30;0.38;;;;;;;;;;5052599;28;20025;-71
2022/09/02 13:12:35;;;;;;;1.52;0.82;;;;;;;;;;5050714;28;20017;-70
2022/09/02 13:15:02;;;;;;;1.77;0.43;;;;;;;;;;5052254;28;20021;-70
2022/09/02 13:17:31;;;;;;;3.72;0.55;;;;;;;;;;5051623;28;20040;-70
2022/09/02 13:20:22;;;;;;;3.22;0.60;;;;;;;;;;5051345;28;20051;-69
2022/09/02 13:22:48;;;;;;;5.45;0.50;;;;;;;;;;5049619;28;20024;-70
2022/09/02 13:25:20;;;;;;;2.72;0.98;;;;;;;;;;5052665;28;20466;-70
2022/09/02 13:27:46;;;;;;;1.42;0.70;;;;;;;;;;5051563;28;20020;-71
2022/09/02 13:30:30;;;;;;;2.65;0.60;;;;;;;;;;5051697;28;20043;-71
2022/09/02 13:32:59;;;;;;;2.40;0.60;;;;;;;;;;5051751;28;20033;-70
2022/09/02 13:35:27;;;;;;;4.57;0.60;;;;;;;;;;5051557;28;20090;-71
2022/09/02 13:37:59;;;;;;;0.57;0.50;;;;;;;;;;5051161;28;20026;-71
2022/09/02 13:40:25;;;;;;;1.38;1.00;;;;;;;;;;5051500;28;20109;-72
2022/09/02 13:42:52;;;;;;;0.60;0.50;;;;;;;;;;5049530;28;20505;-71
2022/09/02 13:45:19;;;;;;;3.15;0.60;;;;;;;;;;5050894;28;20052;-70
2022/09/02 13:47:50;;;;;;;3.72;0.68;;;;;;;;;;5051140;28;20023;-69
2022/09/02 13:50:36;;;;;;;1.15;0.47;;;;;;;;;;5052259;28;20025;-71
2022/09/02 13:53:05;;;;;;;1.02;0.50;;;;;;;;;;5038348;28;20392;-67
2022/09/02 13:55:32;;;;;;;1.60;0.70;;;;;;;;;;5051549;28;20503;-69
2022/09/02 13:57:59;;;;;;;2.22;0.60;;;;;;;;;;5045472;28;20066;-71
2022/09/02 14:00:33;;;;;;;2.40;0.50;;;;;;;;;;5061388;28;20039;-70
2022/09/02 14:03:11;;;;;;;3.00;0.73;;;;;;;;;;5057365;28;20021;-71
2022/09/02 14:05:38;;;;;;;2.38;1.08;;;;;;;;;;5051235;28;20386;-70
2022/09/02 14:08:07;;;;;;;1.10;0.55;;;;;;;;;;5051021;28;20032;-73
2022/09/02 14:10:35;;;;;;;1.40;0.50;;;;;;;;;;5053792;28;20037;-75
2022/09/02 14:13:03;;;;;;;1.23;0.60;;;;;;;;;;5047415;28;20512;-74
2022/09/02 14:15:30;;;;;;;2.88;0.57;;;;;;;;;;5063005;28;20027;-74
2022/09/02 14:18:12;;;;;;;1.65;0.70;;;;;;;;;;5044416;28;20086;-72
2022/09/02 14:20:39;;;;;;;0.50;0.50;;;;;;;;;;5051329;28;20021;-75
2022/09/02 14:23:05;;;;;;;2.28;0.45;;;;;;;;;;5051618;28;20063;-72
2022/09/02 14:25:35;;;;;;;1.35;0.50;;;;;;;;;;5050698;28;20433;-75
2022/09/02 14:28:04;;;;;;;1.67;0.70;;;;;;;;;;5051076;28;20082;-73
2022/09/02 14:30:33;;;;;;;0.52;0.32;;;;;;;;;;5050914;28;20061;-74
2022/09/02 14:33:18;;;;;;;3.22;0.63;;;;;;;;;;5045535;28;20112;-72
2022/09/02 14:35:56;;;;;;;4.90;0.98;;;;;;;;;;5054063;28;20051;-74
2022/09/02 14:38:23;;;;;;;5.57;0.70;;;;;;;;;;5047054;28;20047;-75
2022/09/02 14:40:58;;;;;;;1.75;0.60;;;;;;;;;;5052734;28;20028;-73
2022/09/02 14:43:24;;;;;;;1.83;0.63;;;;;;;;;;5051239;28;20017;-73
2022/09/02 14:45:50;;;;;;;6.35;3.13;;;;;;;;;;5053626;28;20422;-72
2022/09/02 14:48:21;;;;;;;1.98;0.88;;;;;;;;;;5053675;28;20033;-74
2022/09/02 14:50:47;;;;;;;2.90;0.70;;;;;;;;;;5050779;28;20517;-74
2022/09/02 14:53:19;;;;;;;1.73;0.65;;;;;;;;;;5050756;28;20040;-72